createdAt,value
2019-04-21T00:00:12.790Z,11.20
2019-04-21T00:02:47.617Z,11.20
2019-04-21T00:05:40.215Z,11.10
2019-04-21T00:08:19.414Z,11.10
2019-04-21T00:10:40.059Z,11.10
2019-04-21T00:13:07.803Z,11.10
2019-04-21T00:15:33.548Z,11.10
2019-04-21T00:18:00.325Z,10.90
2019-04-21T00:20:41.275Z,10.80
2019-04-21T00:23:22.614Z,10.80
2019-04-21T00:25:49.934Z,10.70
2019-04-21T00:28:34.661Z,10.70
2019-04-21T00:30:57.014Z,10.60
2019-04-21T00:33:17.598Z,10.60
2019-04-21T00:35:49.889Z,10.60
2019-04-21T00:38:31.919Z,10.70
2019-04-21T00:41:00.416Z,10.70
2019-04-21T00:43:34.471Z,10.50
2019-04-21T00:45:57.816Z,10.50
2019-04-21T00:48:45.664Z,10.40
2019-04-21T00:51:33.318Z,10.40
2019-04-21T00:53:51.902Z,10.40
2019-04-21T00:56:28.839Z,10.40
2019-04-21T00:58:59.912Z,10.40
2019-04-21T01:01:26.762Z,10.30
2019-04-21T01:03:57.698Z,10.30
2019-04-21T01:06:35.207Z,10.30
2019-04-21T01:09:05.288Z,10.20
2019-04-21T01:11:38.982Z,10.20
2019-04-21T01:14:12.054Z,10.10
2019-04-21T01:16:57.737Z,10.00
2019-04-21T01:19:41.164Z,10.00
2019-04-21T01:22:01.844Z,9.80
2019-04-21T01:24:35.731Z,9.80
2019-04-21T01:27:10.085Z,9.80
2019-04-21T01:29:56.602Z,9.70
2019-04-21T01:32:29.277Z,9.70
2019-04-21T01:34:59.359Z,9.70
2019-04-21T01:37:39.916Z,9.60
2019-04-21T01:40:16.853Z,9.60
2019-04-21T01:42:43.571Z,9.60
2019-04-21T01:45:14.713Z,9.50
2019-04-21T01:47:46.249Z,9.50
2019-04-21T01:50:31.578Z,9.40
2019-04-21T01:53:02.016Z,9.40
2019-04-21T01:55:49.684Z,9.30
2019-04-21T01:58:15.337Z,9.30
2019-04-21T02:00:52.582Z,9.30
2019-04-21T02:03:41.713Z,9.20
2019-04-21T02:06:02.984Z,9.20
2019-04-21T02:08:27.528Z,9.10
2019-04-21T02:11:09.548Z,9.00
2019-04-21T02:13:35.196Z,9.00
2019-04-21T02:16:14.069Z,9.00
2019-04-21T02:18:42.447Z,8.90
2019-04-21T02:21:00.082Z,8.80
2019-04-21T02:23:46.378Z,8.80
2019-04-21T02:26:16.369Z,8.80
2019-04-21T02:28:50.022Z,8.80
2019-04-21T02:31:39.512Z,8.70
2019-04-21T02:36:32.819Z,8.70
2019-04-21T02:39:08.365Z,8.70
2019-04-21T02:44:00.162Z,8.60
2019-04-21T02:46:35.305Z,8.50
2019-04-21T02:49:13.049Z,8.50
2019-04-21T02:51:27.808Z,8.50
2019-04-21T02:56:37.896Z,8.40
2019-04-21T02:58:59.869Z,8.40
2019-04-21T03:01:50.528Z,8.40
2019-04-21T03:04:26.236Z,8.30
2019-04-21T03:07:07.190Z,8.30
2019-04-21T03:17:29.237Z,8.20
2019-04-21T03:22:25.041Z,8.20
2019-04-21T03:27:50.872Z,8.00
2019-04-21T03:35:32.790Z,8.00
2019-04-21T03:37:30.820Z,7.90
2019-04-21T03:39:59.799Z,7.90
2019-04-21T03:42:34.148Z,7.80
2019-04-21T03:45:06.697Z,7.80
2019-04-21T03:47:30.881Z,7.80
2019-04-21T03:50:12.801Z,7.80
2019-04-21T03:58:19.688Z,7.70
2019-04-21T04:01:02.839Z,7.70
2019-04-21T04:06:03.114Z,7.60
2019-04-21T04:16:20.108Z,7.60
2019-04-21T04:21:20.631Z,7.60
2019-04-21T04:23:58.053Z,7.50
2019-04-21T04:26:22.915Z,7.50
2019-04-21T04:28:54.591Z,7.50
2019-04-21T04:39:25.997Z,7.40
2019-04-21T04:47:20.584Z,7.30
2019-04-21T04:57:42.040Z,7.30
2019-04-21T05:00:03.472Z,7.40
2019-04-21T05:08:38.949Z,7.40
2019-04-21T05:09:52.322Z,7.40
2019-04-21T05:12:38.863Z,7.40
2019-04-21T05:17:48.242Z,7.40
2019-04-21T05:22:48.962Z,7.40
2019-04-21T05:25:03.478Z,7.40
2019-04-21T05:27:45.104Z,7.50
2019-04-21T05:30:24.850Z,7.60
2019-04-21T05:33:03.624Z,7.60
2019-04-21T05:35:49.326Z,7.70
2019-04-21T05:38:23.328Z,7.80
2019-04-21T05:40:48.364Z,8.00
2019-04-21T05:43:32.582Z,8.10
2019-04-21T05:46:21.338Z,8.20
2019-04-21T05:48:35.108Z,8.30
2019-04-21T05:50:59.157Z,8.40
2019-04-21T05:56:14.298Z,8.70
2019-04-21T05:58:37.843Z,8.80
2019-04-21T06:01:28.507Z,8.90
2019-04-21T06:04:03.622Z,9.10
2019-04-21T06:08:53.961Z,9.30
2019-04-21T06:11:28.973Z,9.40
2019-04-21T06:14:01.530Z,9.50
2019-04-21T06:16:40.701Z,9.60
2019-04-21T06:18:58.291Z,9.70
2019-04-21T06:21:28.174Z,9.80
2019-04-21T06:23:59.238Z,9.80
2019-04-21T06:26:51.821Z,9.90
2019-04-21T06:29:02.744Z,10.10
2019-04-21T06:32:09.380Z,10.30
2019-04-21T06:34:04.843Z,10.50
2019-04-21T06:39:30.477Z,10.70
2019-04-21T06:41:43.251Z,10.90
2019-04-21T06:46:39.315Z,11.20
2019-04-21T06:49:11.182Z,11.30
2019-04-21T06:51:46.844Z,11.50
2019-04-21T06:54:23.474Z,11.70
2019-04-21T06:56:51.530Z,11.90
2019-04-21T06:59:21.070Z,12.10
2019-04-21T07:01:56.708Z,12.30
2019-04-21T07:04:24.286Z,12.50
2019-04-21T07:06:56.243Z,12.80
2019-04-21T07:09:25.444Z,13.00
2019-04-21T07:11:51.510Z,13.20
2019-04-21T07:14:44.069Z,13.50
2019-04-21T07:17:05.085Z,13.80
2019-04-21T07:19:35.151Z,14.00
2019-04-21T07:21:57.367Z,14.30
2019-04-21T07:24:31.997Z,14.60
2019-04-21T07:27:02.602Z,15.00
2019-04-21T07:29:34.497Z,15.20
2019-04-21T07:34:36.005Z,15.80
2019-04-21T07:37:00.927Z,16.20
2019-04-21T07:39:29.889Z,16.50
2019-04-21T07:41:54.069Z,16.90
2019-04-21T07:44:31.923Z,17.30
2019-04-21T07:46:53.352Z,17.70
2019-04-21T07:49:53.718Z,18.10
2019-04-21T07:52:23.693Z,18.40
2019-04-21T07:55:07.936Z,18.90
2019-04-21T07:57:18.685Z,19.30
2019-04-21T08:00:06.561Z,19.70
2019-04-21T08:02:23.289Z,20.20
2019-04-21T08:07:30.808Z,20.90
2019-04-21T08:09:51.489Z,21.30
2019-04-21T08:12:19.732Z,21.70
2019-04-21T08:15:05.965Z,22.10
2019-04-21T08:17:24.507Z,22.50
2019-04-21T08:19:53.716Z,23.10
2019-04-21T08:22:25.938Z,23.40
2019-04-21T08:25:01.083Z,23.80
2019-04-21T08:27:25.804Z,24.20
2019-04-21T08:29:58.338Z,24.60
2019-04-21T08:32:38.562Z,25.10
2019-04-21T08:35:08.405Z,25.50
2019-04-21T08:37:24.156Z,25.80
2019-04-21T08:40:04.758Z,26.30
2019-04-21T08:42:26.698Z,26.50
2019-04-21T08:45:00.337Z,26.90
2019-04-21T08:47:25.627Z,27.30
2019-04-21T08:49:54.107Z,27.60
2019-04-21T08:52:36.906Z,28.00
2019-04-21T08:55:03.620Z,28.30
2019-04-21T08:57:47.615Z,28.70
2019-04-21T09:00:16.383Z,29.00
2019-04-21T09:05:04.720Z,29.90
2019-04-21T09:07:38.785Z,30.10
2019-04-21T09:10:06.334Z,30.40
2019-04-21T09:12:34.601Z,30.80
2019-04-21T09:15:08.596Z,31.20
2019-04-21T09:17:28.458Z,31.50
2019-04-21T09:20:13.793Z,31.90
2019-04-21T09:22:38.255Z,32.30
2019-04-21T09:25:14.556Z,32.60
2019-04-21T09:27:39.235Z,32.90
2019-04-21T09:29:53.970Z,33.20
2019-04-21T09:32:23.873Z,33.40
2019-04-21T09:34:51.292Z,33.80
2019-04-21T09:37:33.013Z,34.20
2019-04-21T09:39:52.425Z,34.30
2019-04-21T09:42:21.448Z,34.30
2019-04-21T09:44:55.236Z,34.50
2019-04-21T09:47:23.454Z,34.80
2019-04-21T09:49:49.801Z,35.10
2019-04-21T09:52:25.429Z,35.20
2019-04-21T09:54:58.577Z,35.50
2019-04-21T09:57:32.723Z,35.70
2019-04-21T10:00:02.444Z,35.90
2019-04-21T10:02:32.792Z,36.10
2019-04-21T10:04:50.936Z,36.20
2019-04-21T10:07:26.382Z,36.20
2019-04-21T10:09:50.012Z,36.30
2019-04-21T10:12:18.465Z,36.30
2019-04-21T10:14:47.364Z,36.40
2019-04-21T10:17:21.710Z,36.60
2019-04-21T10:19:50.704Z,36.60
2019-04-21T10:22:19.160Z,36.60
2019-04-21T10:24:48.714Z,36.80
2019-04-21T10:27:17.323Z,37.10
2019-04-21T10:29:47.227Z,37.40
2019-04-21T10:32:18.665Z,37.50
2019-04-21T10:34:47.400Z,37.50
2019-04-21T10:37:16.669Z,37.80
2019-04-21T10:39:45.347Z,37.60
2019-04-21T10:42:15.508Z,37.60
2019-04-21T10:44:45.038Z,37.70
2019-04-21T10:47:14.509Z,38.00
2019-04-21T10:49:42.923Z,38.50
2019-04-21T10:52:22.867Z,38.80
2019-04-21T10:55:12.880Z,39.00
2019-04-21T10:57:30.443Z,39.30
2019-04-21T10:59:59.881Z,39.60
2019-04-21T11:02:39.467Z,40.00
2019-04-21T11:05:09.064Z,40.00
2019-04-21T11:08:07.815Z,39.90
2019-04-21T11:10:25.658Z,39.70
2019-04-21T11:12:54.698Z,39.90
2019-04-21T11:15:23.390Z,39.80
2019-04-21T11:17:52.330Z,40.20
2019-04-21T11:20:21.057Z,40.20
2019-04-21T11:22:49.704Z,40.40
2019-04-21T11:25:18.074Z,40.50
2019-04-21T11:27:47.023Z,40.60
2019-04-21T11:30:17.980Z,40.60
2019-04-21T11:32:47.666Z,40.80
2019-04-21T11:35:17.134Z,40.80
2019-04-21T11:37:46.186Z,40.80
2019-04-21T11:40:17.839Z,41.00
2019-04-21T11:42:46.090Z,41.40
2019-04-21T11:45:24.357Z,41.60
2019-04-21T11:48:12.353Z,41.50
2019-04-21T11:50:41.384Z,41.70
2019-04-21T11:53:10.633Z,41.70
2019-04-21T11:55:43.220Z,42.30
2019-04-21T11:58:09.932Z,42.30
2019-04-21T12:00:39.822Z,42.60
2019-04-21T12:03:09.213Z,42.70
2019-04-21T12:05:37.632Z,42.80
2019-04-21T12:08:18.856Z,43.10
2019-04-21T12:10:37.641Z,43.00
2019-04-21T12:13:07.420Z,42.30
2019-04-21T12:15:36.779Z,42.50
2019-04-21T12:18:06.022Z,42.70
2019-04-21T12:20:35.540Z,43.10
2019-04-21T12:23:04.663Z,43.30
2019-04-21T12:25:40.863Z,43.40
2019-04-21T12:28:10.033Z,43.20
2019-04-21T12:30:39.875Z,43.10
2019-04-21T12:33:14.032Z,43.40
2019-04-21T12:35:43.813Z,43.10
2019-04-21T12:38:13.073Z,43.20
2019-04-21T12:40:42.298Z,43.00
2019-04-21T12:43:10.812Z,43.10
2019-04-21T12:45:39.981Z,43.30
2019-04-21T12:48:08.499Z,43.30
2019-04-21T12:50:36.912Z,43.20
2019-04-21T12:53:05.458Z,43.00
2019-04-21T12:55:37.465Z,43.00
2019-04-21T12:58:05.247Z,43.20
2019-04-21T13:00:34.944Z,43.50
2019-04-21T13:03:03.660Z,44.00
2019-04-21T13:05:33.679Z,43.80
2019-04-21T13:08:02.200Z,43.60
2019-04-21T13:10:31.859Z,43.90
2019-04-21T13:13:00.180Z,43.90
2019-04-21T13:15:29.336Z,44.10
2019-04-21T13:17:58.500Z,44.20
2019-04-21T13:20:27.447Z,44.30
2019-04-21T13:22:57.706Z,44.40
2019-04-21T13:25:27.735Z,44.00
2019-04-21T13:27:56.487Z,43.60
2019-04-21T13:30:24.820Z,43.30
2019-04-21T13:32:53.418Z,43.30
2019-04-21T13:35:23.269Z,43.50
2019-04-21T13:37:52.311Z,43.50
2019-04-21T13:40:45.025Z,43.10
2019-04-21T13:42:58.831Z,43.20
2019-04-21T13:45:25.967Z,43.40
2019-04-21T13:47:54.728Z,43.40
2019-04-21T13:50:23.664Z,43.20
2019-04-21T13:52:52.361Z,43.20
2019-04-21T13:55:21.340Z,43.30
2019-04-21T13:57:50.526Z,43.30
2019-04-21T14:00:19.421Z,43.10
2019-04-21T14:02:48.997Z,43.10
2019-04-21T14:05:18.156Z,42.90
2019-04-21T14:07:46.541Z,42.80
2019-04-21T14:10:16.127Z,42.70
2019-04-21T14:12:44.912Z,42.60
2019-04-21T14:15:14.514Z,42.60
2019-04-21T14:17:43.082Z,42.30
2019-04-21T14:20:11.443Z,41.90
2019-04-21T14:22:40.038Z,41.80
2019-04-21T14:25:09.825Z,42.10
2019-04-21T14:27:38.561Z,41.90
2019-04-21T14:30:10.299Z,42.00
2019-04-21T14:32:40.093Z,41.60
2019-04-21T14:35:09.131Z,42.00
2019-04-21T14:37:38.368Z,41.50
2019-04-21T14:40:13.640Z,41.20
2019-04-21T14:42:40.191Z,41.20
2019-04-21T14:45:10.238Z,41.50
2019-04-21T14:47:46.356Z,41.00
2019-04-21T14:50:26.285Z,40.90
2019-04-21T14:53:20.238Z,40.70
2019-04-21T14:55:51.107Z,40.70
2019-04-21T14:58:19.689Z,40.40
2019-04-21T15:00:55.712Z,40.40
2019-04-21T15:03:32.090Z,40.10
2019-04-21T15:06:01.095Z,39.80
2019-04-21T15:08:29.583Z,39.90
2019-04-21T15:11:01.133Z,39.80
2019-04-21T15:13:30.040Z,39.90
2019-04-21T15:15:58.521Z,39.80
2019-04-21T15:18:28.563Z,39.80
2019-04-21T15:20:57.414Z,39.70
2019-04-21T15:23:28.613Z,39.40
2019-04-21T15:25:57.935Z,39.30
2019-04-21T15:28:31.598Z,39.30
2019-04-21T15:30:56.698Z,39.20
2019-04-21T15:33:26.581Z,38.90
2019-04-21T15:35:55.443Z,38.80
2019-04-21T15:38:23.823Z,38.60
2019-04-21T15:40:57.065Z,38.20
2019-04-21T15:43:24.438Z,37.90
2019-04-21T15:45:57.033Z,37.80
2019-04-21T15:48:26.692Z,37.70
2019-04-21T15:50:56.676Z,37.70
2019-04-21T15:53:27.802Z,37.80
2019-04-21T15:55:59.128Z,37.50
2019-04-21T15:58:44.468Z,37.30
2019-04-21T16:01:24.846Z,37.20
2019-04-21T16:03:58.276Z,37.10
2019-04-21T16:06:27.723Z,37.00
2019-04-21T16:08:58.985Z,36.70
2019-04-21T16:11:26.203Z,36.10
2019-04-21T16:13:55.491Z,36.00
2019-04-21T16:16:30.105Z,35.60
2019-04-21T16:18:58.329Z,35.50
2019-04-21T16:21:29.529Z,35.20
2019-04-21T16:23:58.350Z,34.80
2019-04-21T16:26:30.798Z,34.60
2019-04-21T16:28:59.385Z,34.60
2019-04-21T16:31:28.096Z,34.30
2019-04-21T16:33:58.764Z,34.00
2019-04-21T16:36:27.497Z,33.90
2019-04-21T16:38:57.626Z,33.60
2019-04-21T16:41:28.666Z,33.50
2019-04-21T16:43:58.879Z,33.30
2019-04-21T16:46:27.552Z,33.10
2019-04-21T16:48:57.796Z,32.80
2019-04-21T16:51:28.376Z,32.50
2019-04-21T16:54:01.919Z,32.30
2019-04-21T16:56:33.015Z,32.10
2019-04-21T16:59:03.643Z,31.70
2019-04-21T17:01:38.467Z,31.50
2019-04-21T17:04:06.885Z,31.30
2019-04-21T17:06:38.256Z,31.00
2019-04-21T17:09:08.477Z,30.70
2019-04-21T17:11:38.055Z,30.60
2019-04-21T17:14:24.691Z,30.30
2019-04-21T17:16:57.582Z,29.90
2019-04-21T17:19:18.021Z,29.50
2019-04-21T17:21:41.641Z,29.40
2019-04-21T17:24:10.595Z,29.10
2019-04-21T17:26:41.121Z,28.80
2019-04-21T17:29:10.283Z,28.60
2019-04-21T17:31:39.259Z,28.30
2019-04-21T17:34:21.807Z,27.90
2019-04-21T17:36:50.953Z,27.70
2019-04-21T17:39:26.914Z,27.50
2019-04-21T17:42:13.010Z,27.20
2019-04-21T17:44:27.808Z,26.90
2019-04-21T17:47:05.277Z,26.70
2019-04-21T17:49:30.918Z,26.70
2019-04-21T17:52:16.285Z,26.40
2019-04-21T17:54:48.890Z,26.10
2019-04-21T17:57:36.608Z,26.00
2019-04-21T18:00:11.632Z,25.70
2019-04-21T18:02:42.921Z,25.60
2019-04-21T18:05:16.621Z,25.40
2019-04-21T18:07:48.816Z,25.20
2019-04-21T18:10:07.622Z,25.00
2019-04-21T18:12:36.125Z,24.80
2019-04-21T18:15:02.635Z,24.70
2019-04-21T18:17:22.786Z,24.40
2019-04-21T18:19:53.621Z,24.30
2019-04-21T18:22:38.569Z,24.20
2019-04-21T18:25:13.817Z,24.00
2019-04-21T18:27:38.788Z,23.90
2019-04-21T18:30:46.831Z,23.70
2019-04-21T18:33:22.239Z,23.50
2019-04-21T18:36:06.236Z,23.40
2019-04-21T18:39:02.610Z,23.20
2019-04-21T18:41:13.468Z,23.10
2019-04-21T18:44:19.705Z,22.90
2019-04-21T18:46:40.007Z,22.80
2019-04-21T18:48:57.925Z,22.60
2019-04-21T18:51:39.251Z,22.50
2019-04-21T18:54:26.945Z,22.30
2019-04-21T18:56:33.814Z,22.20
2019-04-21T18:59:04.423Z,22.00
2019-04-21T19:01:35.191Z,21.70
2019-04-21T19:04:05.379Z,21.60
2019-04-21T19:06:56.150Z,21.40
2019-04-21T19:09:24.608Z,21.30
2019-04-21T19:11:59.581Z,21.30
2019-04-21T19:17:31.870Z,21.00
2019-04-21T19:22:04.908Z,20.70
2019-04-21T19:24:39.257Z,20.50
2019-04-21T19:27:11.940Z,20.40
2019-04-21T19:29:34.634Z,20.30
2019-04-21T19:32:08.902Z,20.10
2019-04-21T19:34:24.494Z,20.00
2019-04-21T19:36:57.614Z,19.80
2019-04-21T19:39:35.000Z,19.90
2019-04-21T19:42:00.758Z,19.70
2019-04-21T19:44:38.224Z,19.60
2019-04-21T19:47:11.570Z,19.50
2019-04-21T19:49:46.409Z,19.30
2019-04-21T19:51:59.594Z,19.30
2019-04-21T19:54:29.926Z,19.20
2019-04-21T19:56:51.411Z,19.00
2019-04-21T19:59:30.895Z,19.00
2019-04-21T20:01:51.332Z,18.90
2019-04-21T20:04:20.044Z,18.90
2019-04-21T20:07:01.030Z,18.80
2019-04-21T20:09:37.048Z,18.80
2019-04-21T20:12:03.620Z,18.70
2019-04-21T20:14:51.056Z,18.60
2019-04-21T20:17:00.582Z,18.40
2019-04-21T20:19:19.634Z,18.20
2019-04-21T20:21:51.149Z,18.20
2019-04-21T20:24:25.077Z,18.00
2019-04-21T20:26:59.974Z,17.90
2019-04-21T20:29:37.451Z,17.70
2019-04-21T20:32:16.013Z,17.70
2019-04-21T20:34:38.656Z,17.50
2019-04-21T20:37:09.583Z,17.30
2019-04-21T20:39:24.193Z,17.20
2019-04-21T20:42:11.386Z,17.10
2019-04-21T20:44:42.300Z,17.10
2019-04-21T20:47:03.845Z,16.90
2019-04-21T20:49:34.135Z,16.80
2019-04-21T20:52:14.094Z,16.70
2019-04-21T20:54:41.064Z,16.60
2019-04-21T20:57:11.250Z,16.60
2019-04-21T20:59:31.710Z,16.60
2019-04-21T21:02:10.133Z,16.60
2019-04-21T21:04:32.646Z,16.50
2019-04-21T21:07:16.270Z,16.50
2019-04-21T21:09:41.460Z,16.50
2019-04-21T21:12:22.331Z,16.50
2019-04-21T21:14:39.141Z,16.40
2019-04-21T21:17:13.214Z,16.40
2019-04-21T21:19:40.082Z,16.30
2019-04-21T21:22:05.978Z,16.30
2019-04-21T21:24:49.313Z,16.30
2019-04-21T21:27:09.778Z,16.20
2019-04-21T21:29:40.482Z,16.20
2019-04-21T21:32:16.227Z,16.00
2019-04-21T21:34:47.433Z,16.00
2019-04-21T21:37:21.252Z,15.90
2019-04-21T21:39:48.850Z,16.00
2019-04-21T21:41:58.624Z,15.80
2019-04-21T21:44:27.963Z,15.70
2019-04-21T21:47:06.550Z,15.70
2019-04-21T21:49:38.230Z,15.60
2019-04-21T21:52:04.402Z,15.50
2019-04-21T21:54:25.725Z,15.50
2019-04-21T21:56:54.566Z,15.50
2019-04-21T21:59:27.862Z,15.40
2019-04-21T22:01:54.879Z,15.30
2019-04-21T22:04:26.857Z,15.30
2019-04-21T22:06:58.269Z,15.20
2019-04-21T22:09:24.198Z,15.20
2019-04-21T22:11:57.912Z,15.00
2019-04-21T22:14:32.649Z,15.70
2019-04-21T22:17:11.078Z,14.90
2019-04-21T22:19:41.696Z,14.90
2019-04-21T22:22:13.966Z,14.80
2019-04-21T22:24:44.945Z,14.60
2019-04-21T22:26:54.859Z,14.60
2019-04-21T22:29:23.502Z,14.50
2019-04-21T22:31:59.735Z,14.40
2019-04-21T22:34:27.650Z,14.30
2019-04-21T22:37:01.396Z,14.20
2019-04-21T22:39:43.662Z,14.20
2019-04-21T22:42:01.859Z,14.10
2019-04-21T22:44:22.780Z,14.00
2019-04-21T22:47:02.162Z,14.00
2019-04-21T22:49:22.303Z,13.80
2019-04-21T22:51:52.455Z,13.80
2019-04-21T22:54:28.685Z,13.80
2019-04-21T22:57:01.593Z,13.80
2019-04-21T22:59:24.131Z,13.70
2019-04-21T23:01:54.351Z,13.70
2019-04-21T23:04:25.471Z,13.70
2019-04-21T23:06:59.330Z,13.60
2019-04-21T23:09:24.690Z,13.60
2019-04-21T23:11:56.222Z,13.50
2019-04-21T23:14:23.724Z,13.50
2019-04-21T23:16:54.247Z,13.50
2019-04-21T23:19:35.678Z,13.40
2019-04-21T23:22:09.611Z,13.40
2019-04-21T23:24:45.519Z,13.30
2019-04-21T23:27:06.379Z,13.30
2019-04-21T23:29:49.789Z,13.20
2019-04-21T23:32:09.529Z,13.10
2019-04-21T23:34:26.622Z,13.00
2019-04-21T23:37:00.653Z,13.10
2019-04-21T23:39:27.360Z,13.00
2019-04-21T23:41:55.380Z,13.00
2019-04-21T23:44:24.115Z,13.00
2019-04-21T23:46:57.568Z,13.00
2019-04-21T23:49:35.464Z,12.90
2019-04-21T23:52:00.488Z,12.90
2019-04-21T23:54:23.428Z,12.80
2019-04-21T23:56:52.068Z,12.70
2019-04-21T23:59:20.709Z,12.70
